Terminal Aerodrome Forecast
Issued by NWS Grand Forks, ND

Home | Current Version | Previous Version | Graphics & Text | Print | Product List | Glossary On
Versions: 1 2 3 4 5 6 7 8 9 10 11 12 13 14 15 16 17 18 19
000
FTUS43 KFGF 290600 AAA
TAFFAR
TAF AMD
KFAR 290604Z 2906/3006 01012KT P6SM OVC015
      TEMPO 2907/2911 BKN008
     FM291800 03010KT P6SM OVC025
     FM292100 06010KT P6SM BKN040=

USA.gov is the U.S. government's official web portal to all federal, state and local government web resources and services.